Time;durP1;ratioP1;P1;durP2;ratioP2;P2;SDS_P1;SDS_P2;PMS_P1;PMS_P2;Temp;Humidity;BMP_temperature;BMP_pressure;BME280_temperature;BME280_humidity;BME280_pressure;Samples;Min_cycle;Max_cycle;Signal;HPM_P1;HPM_P2
2022/06/20 00:04:20;;;;;;;13.20;4.30;;;;;;;23.33;45.15;98391.46;234368;1216;138601;-56
2022/06/20 00:09:25;;;;;;;13.90;3.80;;;;;;;23.26;45.50;98391.09;233907;1216;138630;-55
2022/06/20 00:14:28;;;;;;;8.70;3.70;;;;;;;23.17;45.92;98387.30;231809;1217;138444;-55
2022/06/20 00:19:31;;;;;;;7.90;3.90;;;;;;;23.10;46.32;98394.64;234022;1217;138829;-56
2022/06/20 00:24:34;;;;;;;9.80;4.00;;;;;;;23.01;46.75;98391.08;234314;1217;139101;-57
2022/06/20 00:29:40;;;;;;;9.80;4.10;;;;;;;22.98;47.06;98403.46;234439;1217;138173;-55
2022/06/20 00:34:43;;;;;;;9.60;3.70;;;;;;;22.88;47.26;98406.74;234343;1217;140317;-56
2022/06/20 00:39:48;;;;;;;86.00;7.00;;;;;;;22.83;47.48;98414.61;234361;1217;137998;-56
2022/06/20 00:44:58;;;;;;;7.60;3.60;;;;;;;22.76;47.76;98416.20;234052;1217;139191;-54
2022/06/20 00:50:21;;;;;;;9.10;3.70;;;;;;;22.70;47.65;98411.35;231975;1217;139035;-52
2022/06/20 00:55:27;;;;;;;6.00;3.30;;;;;;;22.61;47.82;98419.73;231881;1217;139671;-56
2022/06/20 01:00:35;;;;;;;8.70;3.40;;;;;;;22.53;48.08;98420.20;234396;1217;139477;-53
2022/06/20 01:05:53;;;;;;;7.40;3.40;;;;;;;22.43;48.21;98411.42;233086;1215;138370;-57
2022/06/20 01:11:01;;;;;;;7.80;3.40;;;;;;;22.38;48.43;98419.04;234348;1217;137957;-56
2022/06/20 01:16:13;;;;;;;5.70;3.40;;;;;;;22.35;48.60;98408.90;234260;1217;138160;-56
2022/06/20 01:21:27;;;;;;;8.00;3.20;;;;;;;22.30;48.69;98400.69;234437;1217;139254;-55
2022/06/20 01:26:56;;;;;;;8.70;3.50;;;;;;;22.23;48.90;98400.11;234226;1217;139034;-55
2022/06/20 01:32:00;;;;;;;9.50;3.20;;;;;;;22.18;48.86;98408.96;234228;1217;138686;-57
2022/06/20 01:37:48;;;;;;;8.20;3.70;;;;;;;22.08;48.92;98401.48;234220;1217;137927;-58
2022/06/20 01:42:43;;;;;;;9.10;3.60;;;;;;;22.00;48.89;98392.77;234256;1217;138928;-58
2022/06/20 01:47:46;;;;;;;6.80;3.10;;;;;;;21.91;49.26;98394.86;234416;1217;138154;-58
2022/06/20 01:52:49;;;;;;;7.20;2.90;;;;;;;21.86;49.26;98376.63;234414;1217;138209;-58
2022/06/20 01:57:58;;;;;;;9.20;3.70;;;;;;;21.80;49.40;98368.26;234419;1217;139187;-55
2022/06/20 02:03:08;;;;;;;9.40;3.30;;;;;;;21.78;49.52;98365.73;234383;1216;138874;-56
2022/06/20 02:08:16;;;;;;;8.30;3.40;;;;;;;21.80;49.77;98370.39;234281;1217;138372;-57
2022/06/20 02:13:21;;;;;;;9.90;3.50;;;;;;;21.83;49.89;98380.15;234300;1217;138358;-55
2022/06/20 02:18:28;;;;;;;9.70;3.40;;;;;;;21.88;50.14;98398.61;234492;1216;138059;-57
2022/06/20 02:23:35;;;;;;;8.70;3.40;;;;;;;21.90;49.95;98383.60;234425;1217;139208;-57
2022/06/20 02:28:43;;;;;;;8.80;3.60;;;;;;;21.93;49.86;98378.90;234357;1217;138363;-57
2022/06/20 02:33:47;;;;;;;9.70;3.50;;;;;;;21.91;50.01;98377.02;234404;1214;138148;-60
2022/06/20 02:38:51;;;;;;;7.80;3.60;;;;;;;21.84;49.94;98376.50;234390;1217;138684;-56
2022/06/20 02:44:06;;;;;;;8.50;3.50;;;;;;;21.80;50.13;98379.91;234395;1216;138150;-56
2022/06/20 02:49:10;;;;;;;21.10;13.20;;;;;;;21.72;50.16;98367.72;234438;1217;139089;-56
2022/06/20 02:54:15;;;;;;;12.90;5.10;;;;;;;21.70;50.37;98368.65;234339;1216;138825;-56
2022/06/20 02:59:26;;;;;;;7.50;3.60;;;;;;;21.70;50.34;98367.42;234335;1217;140227;-57
2022/06/20 03:04:33;;;;;;;16.00;5.20;;;;;;;21.84;50.18;98363.07;234421;1217;138890;-57
2022/06/20 03:09:40;;;;;;;71.10;58.20;;;;;;;21.92;50.36;98375.01;234444;1217;138260;-57
2022/06/20 03:14:52;;;;;;;18.10;6.30;;;;;;;21.97;50.43;98375.51;234432;1216;140744;-56
2022/06/20 03:20:03;;;;;;;9.60;4.20;;;;;;;21.95;50.15;98371.80;234310;1217;139763;-55
2022/06/20 03:25:09;;;;;;;16.70;9.00;;;;;;;22.03;50.27;98368.30;234392;1217;139081;-56
2022/06/20 03:30:31;;;;;;;12.60;4.10;;;;;;;22.26;50.62;98396.46;234434;1217;139083;-56
2022/06/20 03:35:35;;;;;;;11.60;4.90;;;;;;;22.26;50.14;98376.77;234362;1217;138986;-56
2022/06/20 03:40:40;;;;;;;19.90;15.80;;;;;;;22.37;50.04;98381.75;234354;1216;138638;-55
2022/06/20 03:45:51;;;;;;;15.60;9.60;;;;;;;22.49;50.15;98379.59;234402;1217;139381;-58
2022/06/20 03:51:02;;;;;;;9.50;3.80;;;;;;;22.71;50.18;98388.44;234308;1217;138276;-57
2022/06/20 03:56:20;;;;;;;11.50;4.20;;;;;;;22.71;49.78;98383.94;234356;1217;138147;-57
2022/06/20 04:01:30;;;;;;;5.60;4.00;;;;;;;22.72;49.66;98382.23;234361;1217;138526;-58
2022/06/20 04:06:46;;;;;;;75.30;67.10;;;;;;;22.81;50.00;98396.55;234398;1217;138236;-57
2022/06/20 04:11:55;;;;;;;13.80;7.60;;;;;;;22.81;49.84;98378.55;234443;1217;139506;-58
2022/06/20 04:18:27;;;;;;;10.10;7.90;;;;;;;22.80;49.72;98403.57;233183;1216;139215;-55
2022/06/20 04:22:32;;;;;;;11.70;3.90;;;;;;;22.84;50.05;98408.73;234304;1217;138296;-59
2022/06/20 04:27:52;;;;;;;11.20;3.90;;;;;;;22.84;49.78;98412.00;234265;1217;230819;-59
2022/06/20 04:33:03;;;;;;;8.30;4.20;;;;;;;22.88;49.96;98404.65;234348;1217;139288;-58
2022/06/20 04:38:22;;;;;;;8.20;3.50;;;;;;;22.93;49.63;98400.97;234380;1217;138514;-59
2022/06/20 04:43:46;;;;;;;9.20;3.60;;;;;;;23.00;49.55;98413.27;232658;1217;138491;-54
2022/06/20 04:48:50;;;;;;;8.00;3.10;;;;;;;23.04;49.66;98422.92;233484;1216;139123;-55
2022/06/20 04:53:53;;;;;;;7.40;3.10;;;;;;;23.12;49.39;98430.41;234420;1217;138456;-59
2022/06/20 04:59:03;;;;;;;5.60;3.00;;;;;;;23.21;49.06;98421.58;234419;1216;138670;-57
2022/06/20 05:04:10;;;;;;;10.90;3.20;;;;;;;23.31;48.83;98418.19;234387;1217;138539;-57
2022/06/20 05:09:18;;;;;;;8.90;3.20;;;;;;;23.41;48.80;98417.91;234385;1217;139488;-57
2022/06/20 05:14:30;;;;;;;7.50;3.50;;;;;;;23.51;48.47;98426.42;234207;1217;138320;-57
2022/06/20 05:19:39;;;;;;;7.90;3.20;;;;;;;23.60;48.26;98424.43;234392;1217;139335;-57
2022/06/20 05:24:44;;;;;;;9.20;3.30;;;;;;;23.76;47.79;98434.27;234277;1217;139031;-57
2022/06/20 05:29:54;;;;;;;12.20;6.20;;;;;;;23.82;47.45;98437.14;234429;1216;139008;-59
2022/06/20 05:35:08;;;;;;;6.90;3.00;;;;;;;23.93;47.22;98432.80;234452;1217;139085;-59
2022/06/20 05:40:23;;;;;;;8.40;3.00;;;;;;;24.01;46.99;98431.77;234332;1217;140088;-59
2022/06/20 05:45:29;;;;;;;9.00;3.30;;;;;;;24.14;46.83;98430.80;233438;1217;138157;-56
2022/06/20 05:50:46;;;;;;;6.90;3.40;;;;;;;24.21;46.89;98425.51;234442;1217;138388;-58
2022/06/20 05:55:55;;;;;;;8.00;2.90;;;;;;;24.37;46.55;98446.19;234285;1217;138729;-59
2022/06/20 06:01:03;;;;;;;15.40;9.70;;;;;;;24.43;46.13;98437.03;234247;1217;138522;-59
2022/06/20 06:06:18;;;;;;;14.10;3.00;;;;;;;24.55;45.85;98433.77;234164;1217;138830;-59
2022/06/20 06:11:26;;;;;;;5.40;2.70;;;;;;;24.61;45.68;98425.23;234446;1217;138861;-59
2022/06/20 06:16:51;;;;;;;7.20;2.30;;;;;;;24.75;45.69;98433.98;234365;1217;138677;-60
2022/06/20 06:21:57;;;;;;;7.90;3.00;;;;;;;24.88;45.36;98426.30;232885;1217;138231;-58
2022/06/20 06:27:10;;;;;;;8.40;2.90;;;;;;;25.01;45.43;98410.42;234030;1217;138670;-60
2022/06/20 06:32:40;;;;;;;10.20;2.60;;;;;;;25.12;45.52;98400.69;234416;1217;138115;-60
2022/06/20 06:37:50;;;;;;;7.00;2.90;;;;;;;25.25;45.22;98394.17;233931;1217;138456;-60
2022/06/20 06:42:55;;;;;;;6.90;2.90;;;;;;;25.37;44.99;98384.23;234394;1217;139238;-61
2022/06/20 06:48:11;;;;;;;6.30;2.40;;;;;;;25.50;44.88;98390.64;234374;1217;138259;-61
2022/06/20 06:53:22;;;;;;;3.10;2.20;;;;;;;25.60;44.44;98392.11;234350;1217;138264;-58
2022/06/20 06:58:32;;;;;;;6.30;2.30;;;;;;;25.69;43.95;98393.00;234335;1217;138523;-60
2022/06/20 07:03:42;;;;;;;5.50;2.40;;;;;;;25.79;43.83;98390.64;234356;1217;140074;-59
2022/06/20 07:09:06;;;;;;;6.60;2.20;;;;;;;25.89;43.35;98373.71;234294;1217;138285;-60
2022/06/20 07:14:22;;;;;;;9.20;2.50;;;;;;;25.96;43.18;98365.39;234311;1217;138839;-59
2022/06/20 07:19:33;;;;;;;5.60;2.50;;;;;;;26.11;42.89;98370.77;234328;1217;138167;-59
2022/06/20 07:24:37;;;;;;;5.10;2.20;;;;;;;26.17;42.43;98367.73;234427;1217;138913;-57
2022/06/20 07:29:54;;;;;;;5.50;2.10;;;;;;;26.26;42.16;98363.06;234567;1217;139462;-56
2022/06/20 07:35:01;;;;;;;4.30;2.20;;;;;;;26.35;42.13;98354.73;234481;1216;138237;-56
2022/06/20 07:40:15;;;;;;;3.40;1.90;;;;;;;26.48;42.09;98359.17;233339;1217;139440;-58
2022/06/20 07:45:30;;;;;;;3.60;2.20;;;;;;;26.59;41.93;98363.05;232834;1217;138906;-56
2022/06/20 07:51:05;;;;;;;7.00;2.30;;;;;;;26.65;41.84;98355.27;234311;1217;139270;-58
2022/06/20 07:56:20;;;;;;;9.00;2.50;;;;;;;26.75;41.91;98346.98;234380;1217;138217;-56
2022/06/20 08:01:26;;;;;;;6.00;2.30;;;;;;;26.86;41.95;98348.09;234420;1217;139238;-59
2022/06/20 08:06:35;;;;;;;5.90;2.40;;;;;;;26.97;41.56;98338.96;234369;1217;139184;-64
2022/06/20 08:11:47;;;;;;;6.40;2.60;;;;;;;27.04;41.38;98332.38;234509;1217;139175;-58
2022/06/20 08:16:54;;;;;;;9.40;2.40;;;;;;;27.10;41.02;98335.29;234399;1217;138115;-56
2022/06/20 08:22:04;;;;;;;5.40;2.10;;;;;;;27.18;40.49;98331.23;234378;1217;138655;-58
2022/06/20 08:27:09;;;;;;;58.50;46.70;;;;;;;27.29;40.15;98314.30;233156;1217;138659;-56
2022/06/20 08:32:27;;;;;;;10.30;4.90;;;;;;;27.37;40.02;98301.46;233063;1217;138657;-53
2022/06/20 08:37:37;;;;;;;6.50;3.70;;;;;;;27.45;39.83;98281.44;231715;1217;139861;-55
2022/06/20 08:42:51;;;;;;;4.30;2.70;;;;;;;27.51;39.69;98271.30;231816;1216;138327;-55
2022/06/20 08:48:23;;;;;;;3.50;2.10;;;;;;;27.56;39.69;98269.18;234404;1217;138375;-58
2022/06/20 08:54:04;;;;;;;6.60;2.30;;;;;;;27.65;39.71;98250.23;233301;1217;139033;-54
2022/06/20 08:59:41;;;;;;;8.50;2.50;;;;;;;27.79;39.65;98238.59;231741;1217;138943;-56
2022/06/20 09:05:13;;;;;;;5.80;3.10;;;;;;;27.91;39.21;98233.48;231701;1217;139208;-55
2022/06/20 09:10:28;;;;;;;7.00;2.50;;;;;;;27.99;38.65;98220.04;234268;1217;138073;-56
2022/06/20 09:15:34;;;;;;;4.20;2.50;;;;;;;28.06;38.42;98211.92;234330;1215;138183;-57
2022/06/20 09:20:50;;;;;;;10.70;2.70;;;;;;;28.20;38.26;98224.23;234224;1217;138039;-57
2022/06/20 09:25:57;;;;;;;4.90;2.40;;;;;;;28.31;38.07;98209.83;234146;1217;139863;-55
2022/06/20 09:31:20;;;;;;;5.70;2.50;;;;;;;28.50;37.86;98201.45;234324;1217;138836;-58
2022/06/20 09:36:59;;;;;;;7.50;2.50;;;;;;;28.64;37.64;98194.27;234524;1217;138686;-56
2022/06/20 09:42:21;;;;;;;5.70;2.60;;;;;;;28.86;37.33;98181.93;234509;1217;139534;-56
2022/06/20 09:47:56;;;;;;;13.00;2.50;;;;;;;29.04;36.81;98166.70;234422;1217;138434;-57
2022/06/20 09:53:38;;;;;;;7.70;2.30;;;;;;;29.23;36.57;98162.98;234324;1217;139294;-57
2022/06/20 09:59:06;;;;;;;10.90;2.50;;;;;;;29.42;36.71;98150.20;234364;1217;140434;-55
2022/06/20 10:04:19;;;;;;;12.80;2.80;;;;;;;29.61;37.26;98137.09;234368;1215;138898;-57
2022/06/20 10:09:47;;;;;;;12.20;2.90;;;;;;;29.77;37.49;98126.54;234465;1217;139692;-57
2022/06/20 10:15:18;;;;;;;7.40;2.70;;;;;;;29.89;37.07;98115.89;234436;1217;140799;-57
2022/06/20 10:20:33;;;;;;;9.20;2.50;;;;;;;30.13;36.79;98106.73;234299;1217;138926;-55
2022/06/20 10:25:57;;;;;;;13.10;3.10;;;;;;;30.33;36.73;98106.91;234329;1217;139412;-55
2022/06/20 10:31:00;;;;;;;19.10;4.50;;;;;;;30.49;36.74;98110.23;234325;1217;138858;-54
2022/06/20 10:36:23;;;;;;;14.70;4.10;;;;;;;30.65;36.65;98099.10;234464;1217;140088;-57
2022/06/20 10:41:52;;;;;;;9.90;3.90;;;;;;;30.83;37.13;98116.21;234189;1217;140100;-57
2022/06/20 10:46:59;;;;;;;11.20;4.20;;;;;;;31.03;36.83;98118.94;234321;1217;139465;-55
2022/06/20 10:52:08;;;;;;;9.00;3.50;;;;;;;31.20;36.76;98111.02;234278;1217;138866;-56
2022/06/20 10:57:29;;;;;;;9.60;3.40;;;;;;;31.28;36.81;98101.02;234406;1217;139213;-56
2022/06/20 11:02:59;;;;;;;12.30;4.10;;;;;;;31.43;36.77;98096.89;234154;1218;139436;-54
2022/06/20 11:08:29;;;;;;;10.70;3.20;;;;;;;31.58;36.41;98103.86;234438;1217;139969;-57
2022/06/20 11:14:09;;;;;;;11.20;3.40;;;;;;;31.75;35.75;98104.96;234333;1217;140393;-58
2022/06/20 11:19:23;;;;;;;7.90;2.70;;;;;;;31.86;35.58;98090.70;234402;1217;138522;-56
2022/06/20 11:24:37;;;;;;;6.20;3.00;;;;;;;32.02;35.16;98088.94;234454;1217;139349;-56
2022/06/20 11:30:04;;;;;;;13.40;3.30;;;;;;;32.13;35.22;98088.52;234502;1216;139210;-57
2022/06/20 11:35:30;;;;;;;8.20;2.60;;;;;;;32.32;35.33;98084.64;234345;1217;138721;-56
2022/06/20 11:40:44;;;;;;;6.80;2.60;;;;;;;32.51;35.17;98080.50;234395;1217;139639;-57
2022/06/20 11:46:25;;;;;;;5.90;2.60;;;;;;;32.77;35.21;98082.73;232381;1217;138642;-53
2022/06/20 11:51:53;;;;;;;4.80;2.30;;;;;;;32.95;35.04;98075.73;234220;1217;138147;-57
2022/06/20 11:57:14;;;;;;;12.70;2.70;;;;;;;33.08;34.61;98068.34;234321;1217;140870;-57
2022/06/20 12:02:32;;;;;;;8.20;2.70;;;;;;;33.20;34.55;98057.06;234300;1217;138493;-56
2022/06/20 12:07:46;;;;;;;7.40;3.00;;;;;;;33.31;34.46;98042.63;234440;1217;139619;-55
2022/06/20 12:13:08;;;;;;;12.80;2.80;;;;;;;33.45;34.03;98041.75;234260;1217;139077;-57
2022/06/20 12:18:20;;;;;;;4.70;2.20;;;;;;;33.55;33.79;98051.99;234521;1217;139473;-57
2022/06/20 12:23:29;;;;;;;7.40;2.70;;;;;;;33.60;33.48;98050.86;234365;1217;138302;-58
2022/06/20 12:28:39;;;;;;;6.90;2.40;;;;;;;33.73;33.76;98061.08;234377;1217;138203;-57
2022/06/20 12:33:47;;;;;;;10.90;2.70;;;;;;;33.80;33.74;98102.08;234267;1217;141409;-58
2022/06/20 12:39:12;;;;;;;12.30;3.00;;;;;;;33.53;33.01;98134.58;234337;1215;139289;-58
2022/06/20 12:44:31;;;;;;;7.90;2.80;;;;;;;33.16;32.51;98159.35;234219;1219;138877;-58
2022/06/20 12:49:53;;;;;;;49.10;4.90;;;;;;;32.76;32.86;98174.43;234413;1217;138655;-58
2022/06/20 12:55:06;;;;;;;;;;;;;;;32.27;33.02;98211.92;234019;1217;138339;-55
2022/06/20 13:00:51;;;;;;;19.60;2.90;;;;;;;31.75;32.71;98207.34;234636;1217;125415;-58
2022/06/20 13:05:58;;;;;;;23.50;2.80;;;;;;;31.42;32.44;98196.98;234493;1217;138771;-57
2022/06/20 13:11:21;;;;;;;16.50;2.40;;;;;;;31.29;32.74;98187.83;234332;1217;139033;-57
2022/06/20 13:16:33;;;;;;;8.90;1.70;;;;;;;31.22;32.56;98193.52;234191;1217;138671;-58
2022/06/20 13:21:50;;;;;;;10.50;1.70;;;;;;;31.26;32.78;98189.86;234231;1217;139002;-58
2022/06/20 13:27:00;;;;;;;8.40;1.60;;;;;;;31.38;32.82;98188.04;234136;1217;138155;-57
2022/06/20 13:32:12;;;;;;;8.30;1.30;;;;;;;31.33;32.50;98180.91;234363;1217;139993;-57
2022/06/20 13:37:40;;;;;;;6.30;1.40;;;;;;;31.22;32.97;98171.65;232822;1217;139916;-52
2022/06/20 13:43:00;;;;;;;6.50;1.80;;;;;;;31.01;33.18;98176.41;232546;1217;139042;-56
2022/06/20 13:48:19;;;;;;;6.70;1.50;;;;;;;30.75;33.48;98186.59;234446;1217;138895;-57
2022/06/20 13:53:37;;;;;;;6.00;1.20;;;;;;;30.51;33.66;98190.23;234212;1217;139180;-57
2022/06/20 13:58:59;;;;;;;8.20;1.80;;;;;;;30.32;33.80;98210.95;234328;1217;138795;-57
2022/06/20 14:04:06;;;;;;;5.50;1.30;;;;;;;30.26;34.15;98213.41;234315;1217;138303;-56
2022/06/20 14:09:16;;;;;;;5.40;1.60;;;;;;;30.22;34.27;98202.17;234299;1216;138347;-56
2022/06/20 14:14:28;;;;;;;4.30;1.40;;;;;;;29.97;34.16;98218.73;234265;1217;138755;-56
2022/06/20 14:19:44;;;;;;;4.50;1.40;;;;;;;29.84;35.05;98236.80;232226;1217;138535;-54
2022/06/20 14:24:52;;;;;;;8.60;5.00;;;;;;;29.78;34.96;98265.70;234285;1217;139929;-57
2022/06/20 14:30:00;;;;;;;2.90;1.40;;;;;;;29.69;35.08;98293.14;234354;1215;139348;-58
2022/06/20 14:35:20;;;;;;;6.50;5.30;;;;;;;29.58;35.39;98321.70;234267;1217;139180;-58
2022/06/20 14:40:36;;;;;;;7.10;2.30;;;;;;;29.39;35.18;98349.92;234305;1217;138834;-58
2022/06/20 14:45:59;;;;;;;9.70;3.10;;;;;;;29.14;35.45;98385.48;234135;1217;138022;-57
2022/06/20 14:51:48;;;;;;;14.20;2.90;;;;;;;28.86;36.11;98379.83;233687;1217;139378;-55
2022/06/20 14:57:22;;;;;;;11.30;3.60;;;;;;;28.44;37.09;98383.05;233996;1216;138984;-56
2022/06/20 15:02:42;;;;;;;9.50;2.80;;;;;;;27.97;38.27;98351.59;234286;1217;139592;-56
2022/06/20 15:07:51;;;;;;;10.90;2.20;;;;;;;27.58;39.32;98339.55;234280;1216;138333;-57
2022/06/20 15:13:00;;;;;;;5.10;1.60;;;;;;;27.20;40.02;98337.52;233403;1216;139235;-55
2022/06/20 15:18:33;;;;;;;5.50;2.00;;;;;;;26.83;40.97;98334.48;234251;1217;139256;-58
2022/06/20 15:23:53;;;;;;;9.50;2.20;;;;;;;26.49;41.95;98323.81;234422;1217;138872;-55
2022/06/20 15:29:19;;;;;;;36.10;24.20;;;;;;;26.18;42.75;98322.48;234128;1217;139144;-60
2022/06/20 15:34:30;;;;;;;7.10;3.00;;;;;;;25.73;43.83;98305.00;234329;1216;138725;-56
2022/06/20 15:39:42;;;;;;;5.60;2.40;;;;;;;25.36;44.68;98272.74;234289;1217;138325;-57
2022/06/20 15:45:05;;;;;;;8.00;2.80;;;;;;;25.10;45.57;98267.10;234250;1217;138359;-58
2022/06/20 15:50:11;;;;;;;13.90;6.60;;;;;;;24.96;46.42;98255.19;234198;1217;138566;-58
2022/06/20 15:55:52;;;;;;;7.80;2.80;;;;;;;24.81;46.94;98222.49;234178;1217;139697;-58
2022/06/20 16:01:14;;;;;;;8.80;3.10;;;;;;;24.72;47.51;98241.32;234108;1217;138405;-57
2022/06/20 16:06:28;;;;;;;9.40;2.70;;;;;;;24.58;47.99;98265.67;234382;1217;138464;-54
2022/06/20 16:11:42;;;;;;;4.80;2.50;;;;;;;24.48;48.65;98239.53;234368;1217;138534;-55
2022/06/20 16:16:48;;;;;;;10.50;3.00;;;;;;;24.35;49.03;98202.75;234239;1217;138146;-55
2022/06/20 16:22:14;;;;;;;8.50;3.00;;;;;;;24.17;49.64;98190.72;234118;1217;139409;-54
2022/06/20 16:27:33;;;;;;;8.80;5.90;;;;;;;24.14;50.38;98181.66;232546;1217;139350;-55
2022/06/20 16:32:39;;;;;;;7.00;3.30;;;;;;;24.09;50.64;98145.26;234180;1217;140077;-58
2022/06/20 16:37:43;;;;;;;;;;;;;;;24.09;50.96;98115.98;234235;1217;139461;-58
2022/06/20 16:42:59;;;;;;;7.10;3.30;;;;;;;24.03;51.33;98064.32;234261;1217;125276;-58
2022/06/20 16:48:23;;;;;;;8.30;3.50;;;;;;;24.07;51.88;98062.17;234296;1217;138244;-56
2022/06/20 16:53:41;;;;;;;11.20;3.60;;;;;;;24.04;52.18;98073.43;234144;1217;139226;-54
2022/06/20 16:59:00;;;;;;;11.70;3.60;;;;;;;24.19;52.46;98069.75;234216;1217;138698;-55
2022/06/20 17:04:12;;;;;;;10.70;2.80;;;;;;;24.35;52.49;98082.75;234163;1217;139129;-56
2022/06/20 17:09:25;;;;;;;7.00;2.90;;;;;;;24.56;52.46;98067.73;234257;1217;138778;-57
2022/06/20 17:14:57;;;;;;;8.80;3.30;;;;;;;24.69;52.26;98060.66;234149;1217;139537;-55
2022/06/20 17:20:20;;;;;;;8.80;3.20;;;;;;;24.80;52.00;98061.76;234281;1217;138680;-56
2022/06/20 17:25:36;;;;;;;7.30;2.90;;;;;;;24.87;52.04;98060.45;234403;1217;139533;-57
2022/06/20 17:31:02;;;;;;;11.50;3.10;;;;;;;24.93;52.02;98064.16;234162;1217;138496;-57
2022/06/20 17:36:14;;;;;;;6.10;2.70;;;;;;;24.93;51.89;98066.56;234371;1217;138421;-57
2022/06/20 17:41:38;;;;;;;6.40;2.80;;;;;;;24.96;51.83;98082.91;234211;1217;139983;-58
2022/06/20 17:47:02;;;;;;;5.40;2.40;;;;;;;24.92;51.85;98092.68;234173;1217;138905;-56
2022/06/20 17:52:24;;;;;;;4.90;2.50;;;;;;;24.93;52.02;98105.41;234128;1217;138791;-57
2022/06/20 17:57:39;;;;;;;6.00;2.80;;;;;;;24.92;52.21;98098.73;234196;1217;139234;-57
2022/06/20 18:03:12;;;;;;;11.00;7.40;;;;;;;24.94;52.31;98133.56;234147;1217;138466;-58
2022/06/20 18:08:29;;;;;;;33.40;25.30;;;;;;;24.73;52.38;98133.60;234210;1217;138441;-58
2022/06/20 18:13:51;;;;;;;10.30;4.20;;;;;;;24.52;52.59;98119.83;234212;1217;139975;-56
2022/06/20 18:19:36;;;;;;;8.90;3.30;;;;;;;24.25;53.01;98132.26;232080;1217;138432;-54
2022/06/20 18:25:08;;;;;;;6.30;3.40;;;;;;;24.09;53.46;98151.41;232013;1217;138806;-52
2022/06/20 18:30:11;;;;;;;5.40;3.30;;;;;;;24.04;53.71;98163.85;234355;1217;140734;-55
2022/06/20 18:35:16;;;;;;;8.10;4.10;;;;;;;23.98;53.87;98156.53;234141;1217;137861;-57
2022/06/20 18:40:20;;;;;;;58.80;44.00;;;;;;;23.89;54.19;98166.79;234261;1217;138588;-56
2022/06/20 18:45:35;;;;;;;6.40;3.70;;;;;;;23.87;54.47;98182.09;234377;1217;141209;-58
2022/06/20 18:50:47;;;;;;;121.30;90.40;;;;;;;23.91;54.69;98191.75;234250;1217;141197;-55
2022/06/20 18:56:31;;;;;;;7.10;4.90;;;;;;;23.93;54.81;98205.08;234168;1217;139309;-57
2022/06/20 19:01:48;;;;;;;10.90;4.10;;;;;;;24.04;54.81;98218.09;234219;1216;139783;-57
2022/06/20 19:07:07;;;;;;;;;;;;;;;23.99;54.83;98224.48;234264;1217;140552;-56
2022/06/20 19:12:34;;;;;;;5.90;3.30;;;;;;;23.97;54.78;98231.19;234304;1217;124658;-57
2022/06/20 19:17:43;;;;;;;7.50;3.60;;;;;;;23.92;54.93;98248.71;233807;1215;140256;-58
2022/06/20 19:23:23;;;;;;;8.50;3.60;;;;;;;23.84;55.05;98242.06;234223;1217;138631;-58
2022/06/20 19:28:32;;;;;;;8.20;3.70;;;;;;;23.73;55.36;98219.88;234170;1217;139084;-56
2022/06/20 19:33:40;;;;;;;6.90;3.80;;;;;;;23.70;55.58;98222.70;234197;1216;139458;-58
2022/06/20 19:38:55;;;;;;;7.40;4.00;;;;;;;23.61;55.97;98218.84;234195;1216;138467;-58
2022/06/20 19:44:24;;;;;;;7.40;4.20;;;;;;;23.57;56.26;98248.38;233518;1216;138356;-57
2022/06/20 19:49:39;;;;;;;12.40;4.50;;;;;;;23.52;56.55;98246.04;231963;1217;138902;-54
2022/06/20 19:54:46;;;;;;;7.60;4.80;;;;;;;23.48;56.77;98222.34;231764;1217;138758;-57
2022/06/20 19:59:52;;;;;;;13.60;5.70;;;;;;;23.39;57.11;98227.71;231957;1216;138207;-57
2022/06/20 20:05:10;;;;;;;9.50;5.30;;;;;;;23.29;57.46;98216.86;234231;1217;138467;-57
2022/06/20 20:10:25;;;;;;;8.10;5.10;;;;;;;23.21;57.69;98222.80;233192;1217;138796;-59
2022/06/20 20:15:35;;;;;;;8.50;5.00;;;;;;;23.19;57.93;98231.23;231680;1217;139765;-57
2022/06/20 20:21:06;;;;;;;10.10;5.30;;;;;;;23.14;58.13;98230.27;234243;1217;138806;-58
2022/06/20 20:26:29;;;;;;;10.40;5.30;;;;;;;23.10;58.32;98231.23;234044;1219;139181;-57
2022/06/20 20:32:03;;;;;;;7.70;5.30;;;;;;;23.02;58.46;98218.34;234189;1217;140090;-56
2022/06/20 20:37:18;;;;;;;9.40;5.20;;;;;;;22.97;58.63;98205.51;234218;1217;140416;-58
2022/06/20 20:42:40;;;;;;;11.90;8.50;;;;;;;22.99;58.76;98189.96;234482;1217;140170;-56
2022/06/20 20:47:45;;;;;;;11.90;6.00;;;;;;;23.03;58.95;98200.94;234273;1217;139600;-58
2022/06/20 20:53:09;;;;;;;13.20;9.00;;;;;;;23.04;58.97;98198.93;234201;1217;139213;-58
2022/06/20 20:58:20;;;;;;;9.50;6.10;;;;;;;23.00;58.97;98192.59;234300;1215;138841;-58
2022/06/20 21:03:48;;;;;;;11.50;6.50;;;;;;;22.91;58.90;98208.36;234211;1217;138452;-56
2022/06/20 21:08:58;;;;;;;9.40;6.30;;;;;;;22.91;58.96;98223.73;234229;1217;139159;-56
2022/06/20 21:14:08;;;;;;;9.10;5.80;;;;;;;22.88;59.02;98221.02;234216;1215;141118;-57
2022/06/20 21:19:15;;;;;;;7.40;4.90;;;;;;;22.80;59.10;98223.48;234261;1217;138632;-59
2022/06/20 21:24:37;;;;;;;7.70;5.20;;;;;;;22.71;59.07;98237.80;234450;1217;138682;-59
2022/06/20 21:29:40;;;;;;;12.20;8.50;;;;;;;22.58;58.74;98238.23;234364;1217;140056;-58
2022/06/20 21:34:48;;;;;;;7.70;5.50;;;;;;;22.52;59.03;98246.41;234194;1217;138925;-59
2022/06/20 21:40:16;;;;;;;8.50;6.50;;;;;;;22.46;58.95;98251.48;234173;1218;139205;-60
2022/06/20 21:45:38;;;;;;;8.90;6.70;;;;;;;22.34;59.17;98244.73;234158;1217;139291;-56
2022/06/20 21:51:19;;;;;;;11.00;8.00;;;;;;;22.25;59.02;98258.31;234294;1216;138565;-58
2022/06/20 21:56:47;;;;;;;10.40;9.30;;;;;;;22.16;59.06;98270.52;234226;1217;138791;-58
2022/06/20 22:07:14;;;;;;;8.60;7.30;;;;;;;21.90;58.55;98305.20;232515;1215;138836;-57
2022/06/20 22:12:23;;;;;;;8.40;5.40;;;;;;;21.75;58.52;98315.58;234454;1216;139402;-60
2022/06/20 22:17:33;;;;;;;5.80;3.80;;;;;;;21.65;58.54;98318.38;232727;1217;139613;-57
2022/06/20 22:22:41;;;;;;;3.60;3.10;;;;;;;21.53;58.30;98335.48;234283;1217;138645;-58
2022/06/20 22:27:51;;;;;;;4.00;2.70;;;;;;;21.37;57.97;98370.02;234227;1217;138731;-59
2022/06/20 22:32:58;;;;;;;1.70;1.20;;;;;;;21.24;57.82;98381.41;232036;1217;138138;-56
2022/06/20 22:38:30;;;;;;;1.20;0.90;;;;;;;21.13;57.35;98375.53;231724;1217;139434;-57
2022/06/20 22:43:35;;;;;;;1.70;0.60;;;;;;;21.01;56.54;98348.05;232884;1217;138116;-57
2022/06/20 22:48:49;;;;;;;0.90;0.50;;;;;;;20.88;55.93;98362.77;234202;1217;138519;-56
2022/06/20 22:54:00;;;;;;;1.00;0.60;;;;;;;20.74;55.72;98370.34;234284;1217;138146;-57
2022/06/20 22:59:18;;;;;;;0.80;0.50;;;;;;;20.63;55.52;98375.90;234152;1217;138718;-57
2022/06/20 23:04:32;;;;;;;0.90;0.40;;;;;;;20.54;55.32;98359.13;234170;1217;139585;-58
2022/06/20 23:09:35;;;;;;;0.50;0.40;;;;;;;20.46;55.23;98334.17;231999;1217;138130;-56
2022/06/20 23:14:38;;;;;;;1.40;0.50;;;;;;;20.37;55.07;98356.70;231793;1217;138038;-56
2022/06/20 23:19:42;;;;;;;0.80;0.50;;;;;;;20.25;55.17;98360.50;231729;1217;139674;-55
2022/06/20 23:24:45;;;;;;;3.70;0.40;;;;;;;20.17;55.13;98354.10;234203;1217;138533;-57
2022/06/20 23:29:48;;;;;;;1.30;0.40;;;;;;;20.12;55.01;98367.48;234438;1217;138156;-57
2022/06/20 23:34:56;;;;;;;1.00;0.50;;;;;;;20.06;54.86;98367.92;233604;1217;138268;-56
2022/06/20 23:40:03;;;;;;;0.60;0.40;;;;;;;19.97;54.70;98387.46;234158;1217;138439;-59
2022/06/20 23:45:09;;;;;;;1.10;0.40;;;;;;;19.92;54.78;98391.48;234331;1217;139348;-58
2022/06/20 23:50:22;;;;;;;3.40;0.30;;;;;;;19.91;54.79;98411.77;234248;1217;139028;-57
2022/06/20 23:55:27;;;;;;;0.60;0.30;;;;;;;19.79;54.60;98420.84;234322;1216;139128;-58
